createdAt,value
2022-11-15T00:01:46.971Z,11.43
2022-11-15T00:04:13.381Z,10.48
2022-11-15T00:06:39.826Z,10.40
2022-11-15T00:09:06.190Z,10.15
2022-11-15T00:11:32.599Z,9.63
2022-11-15T00:13:59.230Z,10.18
2022-11-15T00:16:25.939Z,9.82
2022-11-15T00:18:52.409Z,10.32
2022-11-15T00:21:18.882Z,10.60
2022-11-15T00:23:45.270Z,10.02
2022-11-15T00:26:12.597Z,9.95
2022-11-15T00:28:39.076Z,10.30
2022-11-15T00:31:06.531Z,9.73
2022-11-15T00:33:33.633Z,9.88
2022-11-15T00:36:01.402Z,10.30
2022-11-15T00:38:31.479Z,10.63
2022-11-15T00:40:57.925Z,10.63
2022-11-15T00:43:24.628Z,10.38
2022-11-15T00:45:51.054Z,9.63
2022-11-15T00:48:17.445Z,10.75
2022-11-15T00:50:44.092Z,10.10
2022-11-15T00:53:10.587Z,10.43
2022-11-15T00:55:37.037Z,10.43
2022-11-15T00:58:03.497Z,9.73
2022-11-15T01:00:29.998Z,9.40
2022-11-15T01:02:56.487Z,10.60
2022-11-15T01:05:23.053Z,9.77
2022-11-15T01:07:52.706Z,10.30
2022-11-15T01:10:19.190Z,10.35
2022-11-15T01:12:45.737Z,9.90
2022-11-15T01:15:12.194Z,9.95
2022-11-15T01:17:38.641Z,9.90
2022-11-15T01:20:05.582Z,9.77
2022-11-15T01:22:32.035Z,10.05
2022-11-15T01:24:58.550Z,10.20
2022-11-15T01:27:25.000Z,10.25
2022-11-15T01:29:51.439Z,10.30
2022-11-15T01:32:18.453Z,10.18
2022-11-15T01:34:44.950Z,9.45
2022-11-15T01:37:11.402Z,10.38
2022-11-15T01:39:37.844Z,10.32
2022-11-15T01:42:04.457Z,10.32
2022-11-15T01:44:41.708Z,10.25
2022-11-15T01:47:22.607Z,9.65
2022-11-15T01:49:51.674Z,9.98
2022-11-15T01:52:20.080Z,9.63
2022-11-15T01:54:47.183Z,10.32
2022-11-15T01:57:14.175Z,9.38
2022-11-15T01:59:41.810Z,9.88
2022-11-15T02:02:08.273Z,9.55
2022-11-15T02:04:40.936Z,9.80
2022-11-15T02:07:09.283Z,9.82
2022-11-15T02:09:37.052Z,9.55
2022-11-15T02:12:03.755Z,9.15
2022-11-15T02:14:30.963Z,9.48
2022-11-15T02:17:08.172Z,9.43
2022-11-15T02:19:34.639Z,9.38
2022-11-15T02:22:10.321Z,9.70
2022-11-15T02:24:46.926Z,10.38
2022-11-15T02:27:28.554Z,9.73
2022-11-15T02:30:07.458Z,8.97
2022-11-15T02:32:33.950Z,9.00
2022-11-15T02:35:13.843Z,9.15
2022-11-15T02:38:19.076Z,8.13
2022-11-15T02:40:54.010Z,9.18
2022-11-15T02:43:49.160Z,9.52
2022-11-15T02:46:18.399Z,9.15
2022-11-15T02:48:45.795Z,8.77
2022-11-15T02:51:12.934Z,8.57
2022-11-15T02:53:39.342Z,9.05
2022-11-15T02:56:05.869Z,9.60
2022-11-15T02:58:45.915Z,9.05
2022-11-15T03:01:12.394Z,8.82
2022-11-15T03:03:44.706Z,9.25
2022-11-15T03:06:20.256Z,9.50
2022-11-15T03:09:01.184Z,9.73
2022-11-15T03:11:30.386Z,8.63
2022-11-15T03:14:01.528Z,10.00
2022-11-15T03:16:46.103Z,8.98
2022-11-15T03:19:15.647Z,8.82
2022-11-15T03:21:42.198Z,8.43
2022-11-15T03:24:09.536Z,9.25
2022-11-15T03:26:37.874Z,8.80
2022-11-15T03:29:12.716Z,9.15
2022-11-15T03:31:51.209Z,9.07
2022-11-15T03:34:33.275Z,8.25
2022-11-15T03:36:59.750Z,9.05
2022-11-15T03:39:26.965Z,8.82
2022-11-15T03:41:53.372Z,8.90
2022-11-15T03:44:32.518Z,7.97
2022-11-15T03:47:05.068Z,9.27
2022-11-15T03:49:35.933Z,7.80
2022-11-15T03:52:05.552Z,8.77
2022-11-15T03:54:32.121Z,9.15
2022-11-15T03:56:58.555Z,9.00
2022-11-15T03:59:25.148Z,9.35
2022-11-15T04:01:51.694Z,8.95
2022-11-15T04:04:18.243Z,8.35
2022-11-15T04:06:44.808Z,8.70
2022-11-15T04:09:11.330Z,9.27
2022-11-15T04:11:37.778Z,8.35
2022-11-15T04:14:04.251Z,8.25
2022-11-15T04:16:30.708Z,8.88
2022-11-15T04:19:16.099Z,8.25
2022-11-15T04:22:01.339Z,9.15
2022-11-15T04:24:27.784Z,9.45
2022-11-15T04:26:54.215Z,8.98
2022-11-15T04:29:35.803Z,9.07
2022-11-15T04:32:03.540Z,8.55
2022-11-15T04:34:29.934Z,8.82
2022-11-15T04:37:15.008Z,8.48
2022-11-15T04:39:41.615Z,9.02
2022-11-15T04:42:08.507Z,9.10
2022-11-15T04:44:35.138Z,8.68
2022-11-15T04:47:02.096Z,8.90
2022-11-15T04:49:28.608Z,8.88
2022-11-15T04:51:55.101Z,9.05
2022-11-15T04:54:21.578Z,8.95
2022-11-15T04:56:48.059Z,8.23
2022-11-15T04:59:14.497Z,8.32
2022-11-15T05:01:44.911Z,8.98
2022-11-15T05:04:20.856Z,9.30
2022-11-15T05:06:48.278Z,8.98
2022-11-15T05:09:14.976Z,8.75
2022-11-15T05:11:41.712Z,8.02
2022-11-15T05:14:08.135Z,8.95
2022-11-15T05:16:34.530Z,8.27
2022-11-15T05:19:00.945Z,7.45
2022-11-15T05:21:27.364Z,9.00
2022-11-15T05:23:53.799Z,7.50
2022-11-15T05:26:20.237Z,8.52
2022-11-15T05:28:46.626Z,7.95
2022-11-15T05:31:16.786Z,8.32
2022-11-15T05:33:44.070Z,8.27
2022-11-15T05:36:18.672Z,7.50
2022-11-15T05:38:45.725Z,7.82
2022-11-15T05:41:12.796Z,7.70
2022-11-15T05:43:40.629Z,7.80
2022-11-15T05:46:07.105Z,6.90
2022-11-15T05:48:35.210Z,7.65
2022-11-15T05:51:02.492Z,7.30
2022-11-15T05:53:29.110Z,7.90
2022-11-15T05:55:55.739Z,7.75
2022-11-15T05:58:22.126Z,7.80
2022-11-15T06:00:48.595Z,7.55
2022-11-15T06:03:15.268Z,7.30
2022-11-15T06:05:41.886Z,7.65
2022-11-15T06:08:08.457Z,7.63
2022-11-15T06:10:34.877Z,7.03
2022-11-15T06:13:02.085Z,7.03
2022-11-15T06:15:29.264Z,7.15
2022-11-15T06:17:58.855Z,7.63
2022-11-15T06:20:25.611Z,7.15
2022-11-15T06:22:52.069Z,6.90
2022-11-15T06:25:18.453Z,6.95
2022-11-15T06:27:44.890Z,7.10
2022-11-15T06:30:11.434Z,6.95
2022-11-15T06:32:37.947Z,7.13
2022-11-15T06:35:04.689Z,6.80
2022-11-15T06:37:31.087Z,6.85
2022-11-15T06:39:57.806Z,7.43
2022-11-15T06:42:24.247Z,7.15
2022-11-15T06:44:50.673Z,7.15
2022-11-15T06:47:17.029Z,6.60
2022-11-15T06:49:43.423Z,7.18
2022-11-15T06:52:09.844Z,7.13
2022-11-15T06:54:36.265Z,7.90
2022-11-15T06:57:02.694Z,7.68
2022-11-15T06:59:29.121Z,7.25
2022-11-15T07:01:55.580Z,7.45
2022-11-15T07:04:22.012Z,7.90
2022-11-15T07:06:49.363Z,7.30
2022-11-15T07:09:16.048Z,7.22
2022-11-15T07:11:42.465Z,7.97
2022-11-15T07:14:09.029Z,7.25
2022-11-15T07:16:35.600Z,7.20
2022-11-15T07:19:02.066Z,8.23
2022-11-15T07:21:28.474Z,7.43
2022-11-15T07:23:54.945Z,7.50
2022-11-15T07:26:21.451Z,7.82
2022-11-15T07:28:48.034Z,8.10
2022-11-15T07:31:14.385Z,7.70
2022-11-15T07:33:40.971Z,8.00
2022-11-15T07:36:07.656Z,7.57
2022-11-15T07:38:41.058Z,7.88
2022-11-15T07:41:09.204Z,8.30
2022-11-15T07:43:36.416Z,7.82
2022-11-15T07:46:12.392Z,8.15
2022-11-15T07:48:44.368Z,8.13
2022-11-15T07:53:40.593Z,7.65
2022-11-15T07:56:07.737Z,7.75
2022-11-15T07:58:34.328Z,7.60
2022-11-15T08:01:03.856Z,7.68
2022-11-15T08:03:30.649Z,8.05
2022-11-15T08:05:57.270Z,8.50
2022-11-15T08:08:23.652Z,8.20
2022-11-15T08:10:50.120Z,8.35
2022-11-15T08:13:16.625Z,7.85
2022-11-15T08:15:44.052Z,8.65
2022-11-15T08:18:12.915Z,7.85
2022-11-15T08:20:39.335Z,8.27
2022-11-15T08:23:06.410Z,7.50
2022-11-15T08:25:33.506Z,8.45
2022-11-15T08:28:01.580Z,7.85
2022-11-15T08:30:28.429Z,7.45
2022-11-15T08:32:57.157Z,7.57
2022-11-15T08:35:27.782Z,8.10
2022-11-15T08:37:55.623Z,8.65
2022-11-15T08:40:22.186Z,7.40
2022-11-15T08:42:48.921Z,7.35
2022-11-15T08:45:15.757Z,8.27
2022-11-15T08:47:42.248Z,7.72
2022-11-15T08:50:08.909Z,8.43
2022-11-15T08:52:35.348Z,7.40
2022-11-15T08:55:01.830Z,7.55
2022-11-15T08:57:31.540Z,7.47
2022-11-15T08:59:58.055Z,7.95
2022-11-15T09:02:24.580Z,7.50
2022-11-15T09:04:50.924Z,6.97
2022-11-15T09:07:17.468Z,7.47
2022-11-15T09:09:44.047Z,7.25
2022-11-15T09:12:10.603Z,7.13
2022-11-15T09:14:36.997Z,7.60
2022-11-15T09:17:04.164Z,7.28
2022-11-15T09:19:30.557Z,6.85
2022-11-15T09:21:57.006Z,6.57
2022-11-15T09:24:23.518Z,7.05
2022-11-15T09:26:50.781Z,7.70
2022-11-15T09:32:01.128Z,8.07
2022-11-15T09:34:27.491Z,7.20
2022-11-15T09:36:53.883Z,7.05
2022-11-15T09:39:20.811Z,6.97
2022-11-15T09:41:56.244Z,7.22
2022-11-15T09:44:41.409Z,6.95
2022-11-15T09:47:23.076Z,7.00
2022-11-15T09:49:57.888Z,7.10
2022-11-15T09:52:24.473Z,7.28
2022-11-15T09:54:54.786Z,7.35
2022-11-15T09:57:31.121Z,6.97
2022-11-15T10:00:30.796Z,6.57
2022-11-15T10:03:09.971Z,7.47
2022-11-15T10:05:47.101Z,7.47
2022-11-15T10:08:28.909Z,7.32
2022-11-15T10:11:22.804Z,7.88
2022-11-15T10:13:47.191Z,7.53
2022-11-15T10:16:35.639Z,6.43
2022-11-15T10:19:08.450Z,6.95
2022-11-15T10:22:13.150Z,6.72
2022-11-15T10:24:42.676Z,7.30
2022-11-15T10:27:11.721Z,7.20
2022-11-15T10:29:43.185Z,6.75
2022-11-15T10:32:11.268Z,6.27
2022-11-15T10:34:37.761Z,6.13
2022-11-15T10:37:04.321Z,6.75
2022-11-15T10:42:28.414Z,6.60
2022-11-15T10:44:55.202Z,7.30
2022-11-15T10:47:23.573Z,7.18
2022-11-15T10:49:58.146Z,6.60
2022-11-15T10:52:25.994Z,6.43
2022-11-15T10:54:58.430Z,7.57
2022-11-15T10:59:55.651Z,6.72
2022-11-15T11:02:30.094Z,6.78
2022-11-15T11:04:56.757Z,6.63
2022-11-15T11:07:27.993Z,8.45
2022-11-15T11:10:22.878Z,7.03
2022-11-15T11:12:53.086Z,5.93
2022-11-15T11:15:19.692Z,7.28
2022-11-15T11:17:46.100Z,6.03
2022-11-15T11:20:24.575Z,7.03
2022-11-15T11:23:10.360Z,6.55
2022-11-15T11:25:41.468Z,7.47
2022-11-15T11:28:10.711Z,6.82
2022-11-15T11:30:49.485Z,7.00
2022-11-15T11:33:21.727Z,6.93
2022-11-15T11:36:06.980Z,6.45
2022-11-15T11:38:33.730Z,7.03
2022-11-15T11:41:18.688Z,7.10
2022-11-15T11:43:45.405Z,6.57
2022-11-15T11:46:30.192Z,6.82
2022-11-15T11:48:56.583Z,6.65
2022-11-15T11:51:30.011Z,6.75
2022-11-15T11:53:58.888Z,6.45
2022-11-15T11:56:35.822Z,6.35
2022-11-15T11:59:12.059Z,7.40
2022-11-15T12:01:42.198Z,6.28
2022-11-15T12:04:15.849Z,6.60
2022-11-15T12:07:00.845Z,6.70
2022-11-15T12:09:42.438Z,6.40
2022-11-15T12:12:12.097Z,6.65
2022-11-15T12:14:56.452Z,6.85
2022-11-15T12:17:24.936Z,6.47
2022-11-15T12:19:52.517Z,6.68
2022-11-15T12:22:18.874Z,7.13
2022-11-15T12:24:58.003Z,6.38
2022-11-15T12:27:39.359Z,6.32
2022-11-15T12:30:26.381Z,6.97
2022-11-15T12:32:55.724Z,6.18
2022-11-15T12:35:25.241Z,6.68
2022-11-15T12:37:52.328Z,6.35
2022-11-15T12:40:21.509Z,7.65
2022-11-15T12:42:57.187Z,7.60
2022-11-15T12:45:28.735Z,6.45
2022-11-15T12:47:57.126Z,7.20
2022-11-15T12:50:46.595Z,6.47
2022-11-15T12:53:28.526Z,6.28
2022-11-15T12:56:07.212Z,6.53
2022-11-15T12:58:52.053Z,6.65
2022-11-15T13:01:33.875Z,6.28
2022-11-15T13:04:09.412Z,6.25
2022-11-15T13:06:39.169Z,6.22
2022-11-15T13:09:25.562Z,6.72
2022-11-15T13:11:53.583Z,6.05
2022-11-15T13:14:38.537Z,5.65
2022-11-15T13:17:17.262Z,6.05
2022-11-15T13:19:44.329Z,6.07
2022-11-15T13:22:29.439Z,6.40
2022-11-15T13:24:56.209Z,5.82
2022-11-15T13:27:22.959Z,6.30
2022-11-15T13:29:49.411Z,6.35
2022-11-15T13:32:16.548Z,5.88
2022-11-15T13:34:52.755Z,6.10
2022-11-15T13:37:22.534Z,5.38
2022-11-15T13:39:50.189Z,5.03
2022-11-15T13:42:17.545Z,5.22
2022-11-15T13:44:57.287Z,6.28
2022-11-15T13:47:27.855Z,5.75
2022-11-15T13:49:54.319Z,5.55
2022-11-15T13:52:21.861Z,5.22
2022-11-15T13:54:52.345Z,5.40
2022-11-15T13:57:23.296Z,5.13
2022-11-15T13:59:52.551Z,4.90
2022-11-15T14:02:20.213Z,5.82
2022-11-15T14:05:06.887Z,5.22
2022-11-15T14:07:43.233Z,5.38
2022-11-15T14:10:46.108Z,4.75
2022-11-15T14:13:29.574Z,4.70
2022-11-15T14:16:13.003Z,4.90
2022-11-15T14:18:44.524Z,4.82
2022-11-15T14:21:11.060Z,4.73
2022-11-15T14:23:37.541Z,5.25
2022-11-15T14:26:10.280Z,4.65
2022-11-15T14:28:40.271Z,4.80
2022-11-15T14:31:11.536Z,4.65
2022-11-15T14:33:38.356Z,4.65
2022-11-15T14:36:06.672Z,4.25
2022-11-15T14:38:33.837Z,5.00
2022-11-15T14:41:00.644Z,4.25
2022-11-15T14:43:27.177Z,4.47
2022-11-15T14:45:53.622Z,4.75
2022-11-15T14:48:20.025Z,4.82
2022-11-15T14:50:46.500Z,4.40
2022-11-15T14:53:14.183Z,4.65
2022-11-15T14:55:40.730Z,5.07
2022-11-15T14:58:10.615Z,4.80
2022-11-15T15:00:37.796Z,4.80
2022-11-15T15:03:04.920Z,4.40
2022-11-15T15:05:44.241Z,4.35
2022-11-15T15:08:11.029Z,5.13
2022-11-15T15:10:40.943Z,4.35
2022-11-15T15:13:14.936Z,4.10
2022-11-15T15:15:41.433Z,4.60
2022-11-15T15:18:09.645Z,4.40
2022-11-15T15:20:38.955Z,4.80
2022-11-15T15:23:05.431Z,5.10
2022-11-15T15:25:33.843Z,4.63
2022-11-15T15:28:00.577Z,4.15
2022-11-15T15:30:27.625Z,4.45
2022-11-15T15:32:55.055Z,5.10
2022-11-15T15:35:21.651Z,4.63
2022-11-15T15:37:48.868Z,5.13
2022-11-15T15:40:17.026Z,4.25
2022-11-15T15:42:43.736Z,4.90
2022-11-15T15:45:10.553Z,4.75
2022-11-15T15:47:37.257Z,4.53
2022-11-15T15:50:04.088Z,5.00
2022-11-15T15:52:30.879Z,4.32
2022-11-15T15:54:57.407Z,4.40
2022-11-15T15:57:23.940Z,4.82
2022-11-15T15:59:50.391Z,4.97
2022-11-15T16:02:16.852Z,5.13
2022-11-15T16:04:43.244Z,4.72
2022-11-15T16:07:16.599Z,5.28
2022-11-15T16:10:01.649Z,4.90
2022-11-15T16:12:32.560Z,4.53
2022-11-15T16:14:59.562Z,4.38
2022-11-15T16:17:34.549Z,4.65
2022-11-15T16:20:01.285Z,4.53
2022-11-15T16:22:29.617Z,4.45
2022-11-15T16:24:56.319Z,4.65
2022-11-15T16:27:22.991Z,4.43
2022-11-15T16:29:49.825Z,5.10
2022-11-15T16:32:16.791Z,5.00
2022-11-15T16:34:48.515Z,5.03
2022-11-15T16:39:41.851Z,5.40
2022-11-15T16:42:08.245Z,5.60
2022-11-15T16:44:34.612Z,5.75
2022-11-15T16:47:02.162Z,5.93
2022-11-15T16:49:28.708Z,6.55
2022-11-15T16:51:55.148Z,6.35
2022-11-15T16:54:21.580Z,6.10
2022-11-15T16:56:48.321Z,6.30
2022-11-15T16:59:16.831Z,6.88
2022-11-15T17:01:50.557Z,7.00
2022-11-15T17:04:18.271Z,6.72
2022-11-15T17:06:46.124Z,7.55
2022-11-15T17:09:17.423Z,7.20
2022-11-15T17:11:44.314Z,7.35
2022-11-15T17:14:11.369Z,7.88
2022-11-15T17:16:42.261Z,8.77
2022-11-15T17:19:15.456Z,6.88
2022-11-15T17:21:42.956Z,8.13
2022-11-15T17:24:09.599Z,8.00
2022-11-15T17:26:40.296Z,7.90
2022-11-15T17:29:08.200Z,9.00
2022-11-15T17:31:38.399Z,8.10
2022-11-15T17:34:05.670Z,8.30
2022-11-15T17:36:32.563Z,8.23
2022-11-15T17:38:59.876Z,8.48
2022-11-15T17:41:26.937Z,8.77
2022-11-15T17:43:53.490Z,8.95
2022-11-15T17:46:21.152Z,9.50
2022-11-15T17:48:48.013Z,9.18
2022-11-15T17:51:15.582Z,10.18
2022-11-15T17:53:43.437Z,10.35
2022-11-15T17:56:11.393Z,10.35
2022-11-15T17:58:38.284Z,10.63
2022-11-15T18:01:25.059Z,10.77
2022-11-15T18:03:51.812Z,10.77
2022-11-15T18:06:19.155Z,11.60
2022-11-15T18:08:46.393Z,11.70
2022-11-15T18:11:15.994Z,12.40
2022-11-15T18:13:49.473Z,12.55
2022-11-15T18:16:19.437Z,13.93
2022-11-15T18:18:46.313Z,12.90
2022-11-15T18:21:15.492Z,12.80
2022-11-15T18:23:42.785Z,13.57
2022-11-15T18:26:10.599Z,13.00
2022-11-15T18:28:38.729Z,13.38
2022-11-15T18:31:12.281Z,13.15
2022-11-15T18:33:39.287Z,13.68
2022-11-15T18:36:07.148Z,13.85
2022-11-15T18:38:33.760Z,13.27
2022-11-15T18:41:05.951Z,14.05
2022-11-15T18:43:32.710Z,14.10
2022-11-15T18:46:03.197Z,14.18
2022-11-15T18:48:30.895Z,14.55
2022-11-15T18:51:05.085Z,13.48
2022-11-15T18:53:32.613Z,14.18
2022-11-15T18:56:03.339Z,14.30
2022-11-15T18:58:30.822Z,14.60
2022-11-15T19:01:01.007Z,13.98
2022-11-15T19:03:30.781Z,15.30
2022-11-15T19:06:04.903Z,15.18
2022-11-15T19:08:35.188Z,14.63
2022-11-15T19:11:12.532Z,14.77
2022-11-15T19:13:39.428Z,14.23
2022-11-15T19:16:06.615Z,13.85
2022-11-15T19:18:33.330Z,14.48
2022-11-15T19:21:03.708Z,15.43
2022-11-15T19:23:33.751Z,14.20
2022-11-15T19:26:01.025Z,14.60
2022-11-15T19:28:27.939Z,14.65
2022-11-15T19:30:55.052Z,15.00
2022-11-15T19:33:26.525Z,14.23
2022-11-15T19:36:00.025Z,14.65
2022-11-15T19:38:26.423Z,14.20
2022-11-15T19:40:57.549Z,14.10
2022-11-15T19:43:24.058Z,15.02
2022-11-15T19:46:01.975Z,15.07
2022-11-15T19:48:30.141Z,15.18
2022-11-15T19:50:59.731Z,14.20
2022-11-15T19:53:29.093Z,15.15
2022-11-15T19:56:04.442Z,15.02
2022-11-15T19:58:31.151Z,14.88
2022-11-15T20:01:24.731Z,14.25
2022-11-15T20:03:53.986Z,14.13
2022-11-15T20:06:22.046Z,13.95
2022-11-15T20:08:48.738Z,14.18
2022-11-15T20:11:15.582Z,13.85
2022-11-15T20:13:42.674Z,13.80
2022-11-15T20:16:10.772Z,14.15
2022-11-15T20:18:37.361Z,14.80
2022-11-15T20:21:07.381Z,13.77
2022-11-15T20:23:37.250Z,14.55
2022-11-15T20:26:07.087Z,14.88
2022-11-15T20:28:36.111Z,15.35
2022-11-15T20:31:03.433Z,14.00
2022-11-15T20:33:32.360Z,15.70
2022-11-15T20:36:05.569Z,15.00
2022-11-15T20:38:36.732Z,14.20
2022-11-15T20:41:06.079Z,14.82
2022-11-15T20:43:37.246Z,15.60
2022-11-15T20:46:07.187Z,15.98
2022-11-15T20:48:36.999Z,16.40
2022-11-15T20:51:08.306Z,15.65
2022-11-15T20:53:35.263Z,16.15
2022-11-15T20:56:07.658Z,16.88
2022-11-15T21:01:00.989Z,15.23
2022-11-15T21:03:27.580Z,15.80
2022-11-15T21:05:54.955Z,15.07
2022-11-15T21:08:21.637Z,15.75
2022-11-15T21:11:10.328Z,15.95
2022-11-15T21:13:36.969Z,16.52
2022-11-15T21:16:03.891Z,15.32
2022-11-15T21:18:31.120Z,15.63
2022-11-15T21:21:02.750Z,16.38
2022-11-15T21:23:29.359Z,16.23
2022-11-15T21:25:55.780Z,15.20
2022-11-15T21:28:22.376Z,16.23
2022-11-15T21:30:56.212Z,16.10
2022-11-15T21:33:23.980Z,16.00
2022-11-15T21:35:51.458Z,16.23
2022-11-15T21:38:18.349Z,16.38
2022-11-15T21:40:45.289Z,16.73
2022-11-15T21:43:11.988Z,15.88
2022-11-15T21:45:38.775Z,15.95
2022-11-15T21:48:05.435Z,16.85
2022-11-15T21:50:31.839Z,15.40
2022-11-15T21:52:58.330Z,16.75
2022-11-15T21:55:24.775Z,16.65
2022-11-15T21:57:51.179Z,16.00
2022-11-15T22:00:36.380Z,16.52
2022-11-15T22:03:02.955Z,16.58
2022-11-15T22:05:29.464Z,15.93
2022-11-15T22:07:55.934Z,16.75
2022-11-15T22:10:22.372Z,15.85
2022-11-15T22:12:48.850Z,16.25
2022-11-15T22:15:15.694Z,15.63
2022-11-15T22:18:00.741Z,15.50
2022-11-15T22:20:44.231Z,16.58
2022-11-15T22:23:11.483Z,16.42
2022-11-15T22:25:38.122Z,16.60
2022-11-15T22:28:04.844Z,16.73
2022-11-15T22:30:31.543Z,15.75
2022-11-15T22:32:58.097Z,15.60
2022-11-15T22:35:24.523Z,15.98
2022-11-15T22:37:52.771Z,16.52
2022-11-15T22:40:19.287Z,16.45
2022-11-15T22:42:45.765Z,16.38
2022-11-15T22:45:12.228Z,16.58
2022-11-15T22:47:38.702Z,16.98
2022-11-15T22:50:06.565Z,16.13
2022-11-15T22:52:32.975Z,17.35
2022-11-15T22:54:59.379Z,17.17
2022-11-15T22:57:25.782Z,16.67
2022-11-15T22:59:52.275Z,16.75
2022-11-15T23:02:18.764Z,15.93
2022-11-15T23:04:45.417Z,16.90
2022-11-15T23:07:12.073Z,17.00
2022-11-15T23:09:38.518Z,16.50
2022-11-15T23:12:23.918Z,17.80
2022-11-15T23:14:50.340Z,17.45
2022-11-15T23:17:16.785Z,17.58
2022-11-15T23:19:43.271Z,18.52
2022-11-15T23:22:28.728Z,18.38
2022-11-15T23:24:55.967Z,18.70
2022-11-15T23:27:22.997Z,18.80
2022-11-15T23:30:08.160Z,18.15
2022-11-15T23:32:53.134Z,19.08
2022-11-15T23:35:19.583Z,17.83
2022-11-15T23:37:46.033Z,19.40
2022-11-15T23:40:12.822Z,18.30
2022-11-15T23:42:39.237Z,19.10
2022-11-15T23:45:06.432Z,19.75
2022-11-15T23:47:32.942Z,19.23
2022-11-15T23:49:59.833Z,19.55
2022-11-15T23:52:26.359Z,18.35
2022-11-15T23:54:52.916Z,18.88
2022-11-15T23:57:19.350Z,18.77
2022-11-15T23:59:45.803Z,19.75
